METAR Data
IDs: Format: Raw Decoded Include TAF

Data at: 1154 UTC 23 Sep 2018

KHUM 231150Z 00000KT 7SM SKC 24/23 A2994
KHUM 231047Z 00000KT 7SM SKC 23/23 A2993
KHUM 231035Z AUTO 00000KT 10SM CLR 23/23 A2993 RMK AO2 T02320228
KHUM 231015Z AUTO 00000KT 7SM SCT028 SCT037 23/23 A2992 RMK AO2 T02320228
KHUM 230955Z AUTO 00000KT 7SM SCT028 SCT035 23/23 A2992 RMK AO2 T02330230
KHUM 230935Z AUTO 00000KT 10SM SCT030 SCT037 23/23 A2992 RMK AO2 T02330230
KHUM 230915Z AUTO 00000KT 7SM SCT030 SCT037 23/23 A2992 RMK AO2 T02330228
KHUM 230855Z AUTO 00000KT 7SM SCT028 SCT034 SCT040 23/23 A2992 RMK AO2 T02340228
KHUM 230835Z AUTO 32003KT 10SM SCT028 SCT038 24/23 A2993 RMK AO2 T02350230
KHUM 230815Z AUTO 00000KT 10SM SCT028 SCT036 24/23 A2993 RMK AO2 LTG DSNT SW T02350227
KHUM 230755Z AUTO 00000KT 7SM CLR 23/23 A2994 RMK AO2 T02300225
KHUM 230735Z AUTO 00000KT 7SM SCT029 23/23 A2994 RMK AO2 T02280225
KHUM 230715Z AUTO 00000KT 10SM SCT029 23/23 A2994 RMK AO2 T02340228
KHUM 230655Z AUTO 00000KT 10SM CLR 23/23 A2994 RMK AO2 T02320228
KHUM 230635Z AUTO 00000KT 7SM CLR 23/23 A2994 RMK AO2 T02290225
KHUM 230615Z AUTO 00000KT 7SM CLR 23/23 A2995 RMK AO2 T02320227
KHUM 230555Z AUTO 00000KT 10SM CLR 24/23 A2995 RMK AO2 T02350228 10245 20233 403240233
KHUM 230535Z AUTO 00000KT 10SM CLR 23/23 A2996 RMK AO2 T02340230
KHUM 230515Z AUTO 00000KT 7SM SCT038 24/23 A2996 RMK AO2 T02350230
KHUM 230455Z AUTO 00000KT 10SM SCT038 24/23 A2997 RMK AO2 T02350230
KHUM 230435Z AUTO 00000KT 7SM CLR 24/23 A2997 RMK AO2 T02360230
KHUM 230415Z AUTO 00000KT 7SM CLR 24/23 A2997 RMK AO2 T02370232
KHUM 230355Z AUTO 05003KT 7SM CLR 24/23 A2997 RMK AO2 T02370231
KHUM 230335Z AUTO 00000KT 10SM CLR 24/23 A2997 RMK AO2 T02370230
KHUM 230315Z AUTO 00000KT 10SM CLR 24/23 A2998 RMK AO2 T02350231
KHUM 230255Z AUTO 09003KT 10SM CLR 24/23 A2997 RMK AO2 T02380231
KHUM 230235Z AUTO 00000KT 10SM CLR 24/23 A2998 RMK AO2 T02370231
KHUM 230215Z AUTO 00000KT 10SM CLR 24/23 A2997 RMK AO2 T02360229
KHUM 230155Z AUTO 00000KT 10SM CLR 24/23 A2997 RMK AO2 T02400230
KHUM 230135Z AUTO 00000KT 10SM CLR 24/23 A2996 RMK AO2 T02380232
KHUM 230115Z AUTO 00000KT 10SM CLR 24/23 A2995 RMK AO2 T02430233
KHUM 230055Z AUTO 08005KT 10SM CLR 25/23 A2995 RMK AO2 T02450233
KHUM 230035Z AUTO 00000KT 10SM -RA CLR 24/24 A2996 RMK AO2 T02430235
KHUM 230015Z AUTO 08003KT 7SM SCT050 24/24 A2996 RMK AO2 T02420235
KHUM 222350Z 04008KT 6SM BR BKN030 24/23 A2996 RMK LAST
KHUM 222250Z 36010KT 5SM BR BKN010 24/23 A2997
KHUM 222150Z 30010KT 5SM BR BKN010 28/23 A2995
KHUM 222055Z 14010KT 7SM SCT032 31/24 A2993
KHUM 221955Z 18010KT 7SM SCT032 31/25 A2994
KHUM 221850Z 16008KT 7SM SCT032 32/24 A2996
KHUM 221750Z 16008KT 7SM SCT029 32/24 A2999
KHUM 221650Z 14003KT 7SM SCT029 31/24 A2999
KHUM 221550Z 13004KT 7SM SCT035 31/24 A3002
KHUM 221447Z 14004KT 7SM SCT022 30/24 A3000
KHUM 221347Z 00000KT 7SM SCT027 28/26 A3001
KHUM 221247Z 00000KT 7SM SCT027 25/25 A3000
KHUM 221150Z 00000KT 7SM SCT025 24/23 A2998
KHUM 221047Z 00000KT 7SM CLR 23/23 A2997
KHUM 221035Z AUTO 00000KT 7SM CLR 24/23 A2997 RMK AO2 T02390232
KHUM 221015Z AUTO 00000KT 10SM CLR 24/23 A2997 RMK AO2 T02380234
KHUM 220955Z AUTO 00000KT 7SM CLR 24/23 A2997 RMK AO2 T02350231
KHUM 220935Z AUTO 00000KT 7SM CLR 24/23 A2997 RMK AO2 T02350230
KHUM 220915Z AUTO 00000KT 7SM CLR 24/23 A2997 RMK AO2 T02360231
KHUM 220855Z AUTO 00000KT 7SM CLR 24/23 A2997 RMK AO2 T02350230
KHUM 220835Z AUTO 09003KT 7SM CLR 24/23 A2997 RMK AO2 T02400234
KHUM 220815Z AUTO 00000KT 10SM CLR 24/24 A2998 RMK AO2 T02430235
KHUM 220755Z AUTO 00000KT 10SM CLR 24/23 A2998 RMK AO2 LTG DSNT NW T02410233
KHUM 220735Z AUTO 00000KT 7SM CLR 24/24 A2999 RMK AO2 T02400236
KHUM 220715Z AUTO 00000KT 7SM CLR 24/23 A2999 RMK AO2 T02390234
KHUM 220655Z AUTO 00000KT 7SM CLR 24/24 A2999 RMK AO2 T02430237
KHUM 220635Z AUTO 00000KT 7SM CLR 24/24 A2999 RMK AO2 T02430237
KHUM 220615Z AUTO 06003KT 10SM CLR 25/24 A3000 RMK AO2 LTG DSNT W T02470238
KHUM 220555Z AUTO 00000KT 10SM CLR 25/24 A3002 RMK AO2 T02500239 10266 20244 403210243
KHUM 220535Z AUTO 00000KT 7SM CLR 25/24 A3002 RMK AO2 T02480238
KHUM 220515Z AUTO 00000KT 10SM CLR 25/24 A3002 RMK AO2 T02480239
KHUM 220455Z AUTO 00000KT 10SM SCT025 SCT041 SCT050 26/24 A3003 RMK AO2 T02550240
KHUM 220435Z AUTO 06003KT 10SM SCT025 25/23 A3004 RMK AO2 T02500229
KHUM 220415Z AUTO 00000KT 10SM CLR 25/23 A3004 RMK AO2 T02500231
KHUM 220355Z AUTO 00000KT 10SM CLR 25/24 A3004 RMK AO2 T02450235
KHUM 220335Z AUTO 00000KT 7SM CLR 25/24 A3004 RMK AO2 T02480235
KHUM 220315Z AUTO 00000KT 10SM CLR 25/24 A3005 RMK AO2 LTG DSNT W T02480235
KHUM 220255Z AUTO 00000KT 7SM CLR 25/24 A3005 RMK AO2 T02530235
KHUM 220235Z AUTO 00000KT 10SM CLR 25/23 A3004 RMK AO2 T02530234
KHUM 220215Z AUTO 00000KT 10SM SCT024 25/23 A3004 RMK AO2 LTG DSNT W T02500234
KHUM 220155Z AUTO 00000KT 10SM SCT022 SCT120 26/23 A3003 RMK AO2 LTG DSNT W T02550232
KHUM 220135Z AUTO 13003KT 10SM SCT120 26/23 A3003 RMK AO2 T02570231
KHUM 220115Z AUTO 14003KT 10SM CLR 26/23 A3001 RMK AO2 LTG DSNT W T02600232
KHUM 220055Z AUTO 00000KT 10SM CLR 26/23 A3001 RMK AO2 T02600230
KHUM 220035Z AUTO 13004KT 10SM CLR 26/23 A3000 RMK AO2 T02600226
KHUM 220015Z AUTO 12003KT 10SM CLR 26/22 A2999 RMK AO2 LTG DSNT SW AND W T02610223